sensor_id;sensor_type;location;lat;lon;timestamp;P1;durP1;ratioP1;P2;durP2;ratioP2
21192;SDS011;10754;51.106;7.164;2023-02-25T00:01:20;8.30;;;2.67;;
21192;SDS011;10754;51.106;7.164;2023-02-25T00:03:46;8.17;;;2.67;;
21192;SDS011;10754;51.106;7.164;2023-02-25T00:06:13;9.97;;;2.90;;
21192;SDS011;10754;51.106;7.164;2023-02-25T00:08:41;6.13;;;2.50;;
21192;SDS011;10754;51.106;7.164;2023-02-25T00:11:08;8.27;;;2.20;;
21192;SDS011;10754;51.106;7.164;2023-02-25T00:13:34;6.53;;;2.47;;
21192;SDS011;10754;51.106;7.164;2023-02-25T00:16:01;12.53;;;3.30;;
21192;SDS011;10754;51.106;7.164;2023-02-25T00:18:28;5.73;;;2.47;;
21192;SDS011;10754;51.106;7.164;2023-02-25T00:20:55;9.57;;;3.27;;
21192;SDS011;10754;51.106;7.164;2023-02-25T00:23:21;10.90;;;2.27;;
21192;SDS011;10754;51.106;7.164;2023-02-25T00:25:47;6.50;;;2.17;;
21192;SDS011;10754;51.106;7.164;2023-02-25T00:28:13;6.80;;;2.47;;
21192;SDS011;10754;51.106;7.164;2023-02-25T00:30:39;7.13;;;2.27;;
21192;SDS011;10754;51.106;7.164;2023-02-25T00:33:06;6.23;;;2.27;;
21192;SDS011;10754;51.106;7.164;2023-02-25T00:35:32;7.00;;;2.57;;
21192;SDS011;10754;51.106;7.164;2023-02-25T00:37:58;8.53;;;3.20;;
21192;SDS011;10754;51.106;7.164;2023-02-25T00:40:24;9.43;;;2.90;;
21192;SDS011;10754;51.106;7.164;2023-02-25T00:42:49;9.83;;;2.80;;
21192;SDS011;10754;51.106;7.164;2023-02-25T00:45:15;10.10;;;2.53;;
21192;SDS011;10754;51.106;7.164;2023-02-25T00:47:41;7.93;;;2.60;;
21192;SDS011;10754;51.106;7.164;2023-02-25T00:50:07;8.07;;;2.13;;
21192;SDS011;10754;51.106;7.164;2023-02-25T00:52:33;10.03;;;3.53;;
21192;SDS011;10754;51.106;7.164;2023-02-25T00:55:01;7.17;;;3.00;;
21192;SDS011;10754;51.106;7.164;2023-02-25T00:57:26;7.40;;;2.60;;
21192;SDS011;10754;51.106;7.164;2023-02-25T00:59:52;8.50;;;2.90;;
21192;SDS011;10754;51.106;7.164;2023-02-25T01:02:17;9.03;;;3.20;;
21192;SDS011;10754;51.106;7.164;2023-02-25T01:04:43;7.93;;;3.10;;
21192;SDS011;10754;51.106;7.164;2023-02-25T01:07:08;7.47;;;3.03;;
21192;SDS011;10754;51.106;7.164;2023-02-25T01:09:35;8.17;;;2.50;;
21192;SDS011;10754;51.106;7.164;2023-02-25T01:12:01;7.57;;;2.70;;
21192;SDS011;10754;51.106;7.164;2023-02-25T01:14:27;9.03;;;2.83;;
21192;SDS011;10754;51.106;7.164;2023-02-25T01:16:52;10.87;;;3.00;;
21192;SDS011;10754;51.106;7.164;2023-02-25T01:19:22;7.77;;;3.23;;
21192;SDS011;10754;51.106;7.164;2023-02-25T01:21:50;9.97;;;3.10;;
21192;SDS011;10754;51.106;7.164;2023-02-25T01:24:19;7.77;;;3.23;;
21192;SDS011;10754;51.106;7.164;2023-02-25T01:26:48;7.40;;;2.53;;
21192;SDS011;10754;51.106;7.164;2023-02-25T01:29:19;7.20;;;2.77;;
21192;SDS011;10754;51.106;7.164;2023-02-25T01:31:46;6.47;;;2.83;;
21192;SDS011;10754;51.106;7.164;2023-02-25T01:34:16;10.57;;;3.30;;
21192;SDS011;10754;51.106;7.164;2023-02-25T01:36:42;7.67;;;2.53;;
21192;SDS011;10754;51.106;7.164;2023-02-25T01:39:09;6.90;;;2.23;;
21192;SDS011;10754;51.106;7.164;2023-02-25T01:41:36;9.30;;;2.83;;
21192;SDS011;10754;51.106;7.164;2023-02-25T01:46:34;8.97;;;3.07;;
21192;SDS011;10754;51.106;7.164;2023-02-25T01:49:01;5.20;;;1.80;;
21192;SDS011;10754;51.106;7.164;2023-02-25T01:51:31;6.57;;;2.07;;
21192;SDS011;10754;51.106;7.164;2023-02-25T01:53:58;7.87;;;2.73;;
21192;SDS011;10754;51.106;7.164;2023-02-25T01:56:26;6.60;;;2.10;;
21192;SDS011;10754;51.106;7.164;2023-02-25T01:58:54;3.93;;;2.00;;
21192;SDS011;10754;51.106;7.164;2023-02-25T02:01:21;8.67;;;2.93;;
21192;SDS011;10754;51.106;7.164;2023-02-25T02:03:50;7.40;;;2.60;;
21192;SDS011;10754;51.106;7.164;2023-02-25T02:09:08;9.50;;;2.57;;
21192;SDS011;10754;51.106;7.164;2023-02-25T02:11:37;6.53;;;1.97;;
21192;SDS011;10754;51.106;7.164;2023-02-25T02:14:03;6.70;;;2.13;;
21192;SDS011;10754;51.106;7.164;2023-02-25T02:22:18;7.00;;;2.57;;
21192;SDS011;10754;51.106;7.164;2023-02-25T02:25:18;9.17;;;2.50;;
21192;SDS011;10754;51.106;7.164;2023-02-25T02:27:59;7.90;;;2.23;;
21192;SDS011;10754;51.106;7.164;2023-02-25T02:33:49;7.97;;;2.27;;
21192;SDS011;10754;51.106;7.164;2023-02-25T02:39:48;7.00;;;2.33;;
21192;SDS011;10754;51.106;7.164;2023-02-25T02:42:30;4.37;;;1.50;;
21192;SDS011;10754;51.106;7.164;2023-02-25T02:47:36;7.93;;;2.03;;
21192;SDS011;10754;51.106;7.164;2023-02-25T02:52:40;5.13;;;3.00;;
21192;SDS011;10754;51.106;7.164;2023-02-25T02:55:21;9.03;;;2.83;;
21192;SDS011;10754;51.106;7.164;2023-02-25T02:58:03;9.90;;;2.37;;
21192;SDS011;10754;51.106;7.164;2023-02-25T03:00:35;7.80;;;3.00;;
21192;SDS011;10754;51.106;7.164;2023-02-25T03:03:15;8.83;;;2.50;;
21192;SDS011;10754;51.106;7.164;2023-02-25T03:05:45;9.53;;;2.30;;
21192;SDS011;10754;51.106;7.164;2023-02-25T03:08:21;8.00;;;2.60;;
21192;SDS011;10754;51.106;7.164;2023-02-25T03:10:50;8.37;;;2.37;;
21192;SDS011;10754;51.106;7.164;2023-02-25T03:13:16;7.40;;;2.53;;
21192;SDS011;10754;51.106;7.164;2023-02-25T03:15:41;8.03;;;2.10;;
21192;SDS011;10754;51.106;7.164;2023-02-25T03:18:14;8.40;;;2.13;;
21192;SDS011;10754;51.106;7.164;2023-02-25T03:20:46;5.23;;;2.07;;
21192;SDS011;10754;51.106;7.164;2023-02-25T03:23:16;5.80;;;2.27;;
21192;SDS011;10754;51.106;7.164;2023-02-25T03:25:46;6.10;;;1.83;;
21192;SDS011;10754;51.106;7.164;2023-02-25T03:28:23;11.17;;;2.90;;
21192;SDS011;10754;51.106;7.164;2023-02-25T03:31:02;6.63;;;2.40;;
21192;SDS011;10754;51.106;7.164;2023-02-25T03:33:33;9.13;;;2.33;;
21192;SDS011;10754;51.106;7.164;2023-02-25T03:36:06;10.60;;;3.53;;
21192;SDS011;10754;51.106;7.164;2023-02-25T03:38:37;7.47;;;2.77;;
21192;SDS011;10754;51.106;7.164;2023-02-25T03:41:08;7.27;;;2.43;;
21192;SDS011;10754;51.106;7.164;2023-02-25T03:43:40;5.70;;;2.60;;
21192;SDS011;10754;51.106;7.164;2023-02-25T03:46:12;8.63;;;2.67;;
21192;SDS011;10754;51.106;7.164;2023-02-25T03:48:40;8.70;;;2.23;;
21192;SDS011;10754;51.106;7.164;2023-02-25T03:51:06;10.27;;;3.07;;
21192;SDS011;10754;51.106;7.164;2023-02-25T03:53:33;8.40;;;3.60;;
21192;SDS011;10754;51.106;7.164;2023-02-25T03:56:00;8.00;;;2.77;;
21192;SDS011;10754;51.106;7.164;2023-02-25T03:58:39;7.57;;;2.67;;
21192;SDS011;10754;51.106;7.164;2023-02-25T04:01:10;8.33;;;2.33;;
21192;SDS011;10754;51.106;7.164;2023-02-25T04:03:40;6.57;;;2.43;;
21192;SDS011;10754;51.106;7.164;2023-02-25T04:06:05;8.80;;;3.03;;
21192;SDS011;10754;51.106;7.164;2023-02-25T04:08:31;12.97;;;3.13;;
21192;SDS011;10754;51.106;7.164;2023-02-25T04:10:56;9.40;;;2.43;;
21192;SDS011;10754;51.106;7.164;2023-02-25T04:13:22;8.30;;;3.00;;
21192;SDS011;10754;51.106;7.164;2023-02-25T04:15:48;6.93;;;2.50;;
21192;SDS011;10754;51.106;7.164;2023-02-25T04:18:14;8.87;;;2.97;;
21192;SDS011;10754;51.106;7.164;2023-02-25T04:20:40;8.07;;;3.40;;
21192;SDS011;10754;51.106;7.164;2023-02-25T04:23:06;7.67;;;3.43;;
21192;SDS011;10754;51.106;7.164;2023-02-25T04:25:32;9.50;;;3.03;;
21192;SDS011;10754;51.106;7.164;2023-02-25T04:27:58;7.60;;;2.90;;
21192;SDS011;10754;51.106;7.164;2023-02-25T04:30:24;9.20;;;2.93;;
21192;SDS011;10754;51.106;7.164;2023-02-25T04:32:50;7.50;;;2.17;;
21192;SDS011;10754;51.106;7.164;2023-02-25T04:35:15;10.77;;;3.17;;
21192;SDS011;10754;51.106;7.164;2023-02-25T04:37:42;9.63;;;3.30;;
21192;SDS011;10754;51.106;7.164;2023-02-25T04:40:15;9.53;;;2.70;;
21192;SDS011;10754;51.106;7.164;2023-02-25T04:42:43;9.63;;;2.53;;
21192;SDS011;10754;51.106;7.164;2023-02-25T04:45:09;6.83;;;2.70;;
21192;SDS011;10754;51.106;7.164;2023-02-25T04:47:35;8.03;;;2.73;;
21192;SDS011;10754;51.106;7.164;2023-02-25T04:50:01;10.23;;;3.10;;
21192;SDS011;10754;51.106;7.164;2023-02-25T04:52:27;8.03;;;2.47;;
21192;SDS011;10754;51.106;7.164;2023-02-25T04:54:53;7.07;;;2.53;;
21192;SDS011;10754;51.106;7.164;2023-02-25T04:57:18;9.87;;;2.87;;
21192;SDS011;10754;51.106;7.164;2023-02-25T04:59:44;11.30;;;2.80;;
21192;SDS011;10754;51.106;7.164;2023-02-25T05:02:10;5.80;;;2.20;;
21192;SDS011;10754;51.106;7.164;2023-02-25T05:04:35;6.00;;;2.43;;
21192;SDS011;10754;51.106;7.164;2023-02-25T05:07:02;10.80;;;2.53;;
21192;SDS011;10754;51.106;7.164;2023-02-25T05:09:28;7.17;;;2.73;;
21192;SDS011;10754;51.106;7.164;2023-02-25T05:11:54;7.17;;;1.73;;
21192;SDS011;10754;51.106;7.164;2023-02-25T05:14:19;4.60;;;2.27;;
21192;SDS011;10754;51.106;7.164;2023-02-25T05:16:45;7.70;;;2.37;;
21192;SDS011;10754;51.106;7.164;2023-02-25T05:19:14;7.33;;;2.70;;
21192;SDS011;10754;51.106;7.164;2023-02-25T05:21:41;5.07;;;1.57;;
21192;SDS011;10754;51.106;7.164;2023-02-25T05:24:06;7.00;;;2.37;;
21192;SDS011;10754;51.106;7.164;2023-02-25T05:26:32;6.67;;;2.03;;
21192;SDS011;10754;51.106;7.164;2023-02-25T05:28:58;9.33;;;2.50;;
21192;SDS011;10754;51.106;7.164;2023-02-25T05:31:23;5.07;;;1.77;;
21192;SDS011;10754;51.106;7.164;2023-02-25T05:33:50;7.97;;;2.50;;
21192;SDS011;10754;51.106;7.164;2023-02-25T05:36:15;7.87;;;2.63;;
21192;SDS011;10754;51.106;7.164;2023-02-25T05:38:42;6.93;;;2.30;;
21192;SDS011;10754;51.106;7.164;2023-02-25T05:41:08;8.17;;;2.70;;
21192;SDS011;10754;51.106;7.164;2023-02-25T05:43:35;6.90;;;2.53;;
21192;SDS011;10754;51.106;7.164;2023-02-25T05:46:02;5.27;;;1.70;;
21192;SDS011;10754;51.106;7.164;2023-02-25T05:48:29;10.50;;;2.67;;
21192;SDS011;10754;51.106;7.164;2023-02-25T05:51:00;9.23;;;2.27;;
21192;SDS011;10754;51.106;7.164;2023-02-25T05:53:27;6.87;;;2.20;;
21192;SDS011;10754;51.106;7.164;2023-02-25T05:55:52;8.37;;;2.17;;
21192;SDS011;10754;51.106;7.164;2023-02-25T05:58:19;8.43;;;2.20;;
21192;SDS011;10754;51.106;7.164;2023-02-25T06:00:45;6.97;;;2.23;;
21192;SDS011;10754;51.106;7.164;2023-02-25T06:03:10;7.83;;;2.50;;
21192;SDS011;10754;51.106;7.164;2023-02-25T06:05:38;9.10;;;2.90;;
21192;SDS011;10754;51.106;7.164;2023-02-25T06:08:05;9.30;;;2.70;;
21192;SDS011;10754;51.106;7.164;2023-02-25T06:10:31;8.40;;;2.40;;
21192;SDS011;10754;51.106;7.164;2023-02-25T06:13:02;8.60;;;2.33;;
21192;SDS011;10754;51.106;7.164;2023-02-25T06:15:28;9.33;;;2.83;;
21192;SDS011;10754;51.106;7.164;2023-02-25T06:17:54;8.03;;;2.70;;
21192;SDS011;10754;51.106;7.164;2023-02-25T06:20:19;6.40;;;2.27;;
21192;SDS011;10754;51.106;7.164;2023-02-25T06:22:45;5.43;;;2.03;;
21192;SDS011;10754;51.106;7.164;2023-02-25T06:25:10;7.40;;;2.27;;
21192;SDS011;10754;51.106;7.164;2023-02-25T06:27:36;9.23;;;2.30;;
21192;SDS011;10754;51.106;7.164;2023-02-25T06:30:01;7.93;;;2.73;;
21192;SDS011;10754;51.106;7.164;2023-02-25T06:32:27;6.93;;;2.77;;
21192;SDS011;10754;51.106;7.164;2023-02-25T06:34:53;7.60;;;2.20;;
21192;SDS011;10754;51.106;7.164;2023-02-25T06:37:18;8.83;;;2.70;;
21192;SDS011;10754;51.106;7.164;2023-02-25T06:39:44;9.47;;;1.93;;
21192;SDS011;10754;51.106;7.164;2023-02-25T06:42:10;10.80;;;2.70;;
21192;SDS011;10754;51.106;7.164;2023-02-25T06:44:35;7.57;;;2.50;;
21192;SDS011;10754;51.106;7.164;2023-02-25T06:47:01;6.50;;;2.00;;
21192;SDS011;10754;51.106;7.164;2023-02-25T06:49:26;6.10;;;2.47;;
21192;SDS011;10754;51.106;7.164;2023-02-25T06:51:53;6.40;;;2.47;;
21192;SDS011;10754;51.106;7.164;2023-02-25T06:54:18;9.23;;;2.47;;
21192;SDS011;10754;51.106;7.164;2023-02-25T06:56:44;8.10;;;2.30;;
21192;SDS011;10754;51.106;7.164;2023-02-25T06:59:09;7.43;;;2.00;;
21192;SDS011;10754;51.106;7.164;2023-02-25T07:01:35;8.30;;;3.03;;
21192;SDS011;10754;51.106;7.164;2023-02-25T07:04:01;10.10;;;3.23;;
21192;SDS011;10754;51.106;7.164;2023-02-25T07:06:27;6.77;;;2.13;;
21192;SDS011;10754;51.106;7.164;2023-02-25T07:08:53;8.87;;;2.80;;
21192;SDS011;10754;51.106;7.164;2023-02-25T07:13:45;6.27;;;2.40;;
21192;SDS011;10754;51.106;7.164;2023-02-25T07:16:12;5.33;;;2.07;;
21192;SDS011;10754;51.106;7.164;2023-02-25T07:18:38;6.67;;;2.30;;
21192;SDS011;10754;51.106;7.164;2023-02-25T07:21:05;7.50;;;2.83;;
21192;SDS011;10754;51.106;7.164;2023-02-25T07:23:31;11.50;;;3.47;;
21192;SDS011;10754;51.106;7.164;2023-02-25T07:25:56;7.20;;;2.53;;
21192;SDS011;10754;51.106;7.164;2023-02-25T07:28:25;7.67;;;2.37;;
21192;SDS011;10754;51.106;7.164;2023-02-25T07:30:51;7.67;;;2.63;;
21192;SDS011;10754;51.106;7.164;2023-02-25T07:33:16;10.77;;;3.10;;
21192;SDS011;10754;51.106;7.164;2023-02-25T07:35:42;8.30;;;3.07;;
21192;SDS011;10754;51.106;7.164;2023-02-25T07:38:07;9.43;;;2.73;;
21192;SDS011;10754;51.106;7.164;2023-02-25T07:40:36;8.97;;;2.70;;
21192;SDS011;10754;51.106;7.164;2023-02-25T07:43:03;5.70;;;2.17;;
21192;SDS011;10754;51.106;7.164;2023-02-25T07:45:29;9.77;;;3.00;;
21192;SDS011;10754;51.106;7.164;2023-02-25T07:47:54;8.70;;;2.63;;
21192;SDS011;10754;51.106;7.164;2023-02-25T07:50:20;10.00;;;2.93;;
21192;SDS011;10754;51.106;7.164;2023-02-25T07:52:45;9.17;;;2.60;;
21192;SDS011;10754;51.106;7.164;2023-02-25T07:55:11;9.03;;;2.23;;
21192;SDS011;10754;51.106;7.164;2023-02-25T07:57:36;9.90;;;2.57;;
21192;SDS011;10754;51.106;7.164;2023-02-25T08:00:02;7.43;;;2.50;;
21192;SDS011;10754;51.106;7.164;2023-02-25T08:02:34;7.60;;;2.20;;
21192;SDS011;10754;51.106;7.164;2023-02-25T08:05:00;8.23;;;2.27;;
21192;SDS011;10754;51.106;7.164;2023-02-25T08:07:26;8.83;;;2.30;;
21192;SDS011;10754;51.106;7.164;2023-02-25T08:09:53;8.50;;;2.90;;
21192;SDS011;10754;51.106;7.164;2023-02-25T08:12:18;13.50;;;3.10;;
21192;SDS011;10754;51.106;7.164;2023-02-25T08:14:44;9.07;;;2.27;;
21192;SDS011;10754;51.106;7.164;2023-02-25T08:17:10;11.80;;;3.00;;
21192;SDS011;10754;51.106;7.164;2023-02-25T08:19:37;8.17;;;2.67;;
21192;SDS011;10754;51.106;7.164;2023-02-25T08:22:02;10.07;;;2.97;;
21192;SDS011;10754;51.106;7.164;2023-02-25T08:24:28;10.30;;;2.93;;
21192;SDS011;10754;51.106;7.164;2023-02-25T08:26:54;9.57;;;2.70;;
21192;SDS011;10754;51.106;7.164;2023-02-25T08:29:20;10.00;;;2.30;;
21192;SDS011;10754;51.106;7.164;2023-02-25T08:31:45;9.83;;;2.93;;
21192;SDS011;10754;51.106;7.164;2023-02-25T08:34:12;6.77;;;2.60;;
21192;SDS011;10754;51.106;7.164;2023-02-25T08:36:38;12.17;;;3.47;;
21192;SDS011;10754;51.106;7.164;2023-02-25T08:39:04;7.03;;;2.67;;
21192;SDS011;10754;51.106;7.164;2023-02-25T08:41:29;8.03;;;2.60;;
21192;SDS011;10754;51.106;7.164;2023-02-25T08:43:55;8.53;;;2.57;;
21192;SDS011;10754;51.106;7.164;2023-02-25T08:46:23;9.13;;;2.63;;
21192;SDS011;10754;51.106;7.164;2023-02-25T08:48:51;8.97;;;2.67;;
21192;SDS011;10754;51.106;7.164;2023-02-25T08:51:18;7.93;;;3.00;;
21192;SDS011;10754;51.106;7.164;2023-02-25T08:53:44;11.30;;;2.80;;
21192;SDS011;10754;51.106;7.164;2023-02-25T08:56:12;10.27;;;3.47;;
21192;SDS011;10754;51.106;7.164;2023-02-25T08:58:40;9.80;;;3.53;;
21192;SDS011;10754;51.106;7.164;2023-02-25T09:01:10;10.07;;;3.27;;
21192;SDS011;10754;51.106;7.164;2023-02-25T09:03:38;12.93;;;3.93;;
21192;SDS011;10754;51.106;7.164;2023-02-25T09:06:21;8.20;;;3.23;;
21192;SDS011;10754;51.106;7.164;2023-02-25T09:08:52;8.20;;;3.57;;
21192;SDS011;10754;51.106;7.164;2023-02-25T09:11:24;8.13;;;3.47;;
21192;SDS011;10754;51.106;7.164;2023-02-25T09:13:50;11.83;;;4.53;;
21192;SDS011;10754;51.106;7.164;2023-02-25T09:16:16;8.33;;;3.90;;
21192;SDS011;10754;51.106;7.164;2023-02-25T09:18:44;9.57;;;4.50;;
21192;SDS011;10754;51.106;7.164;2023-02-25T09:21:13;8.60;;;4.97;;
21192;SDS011;10754;51.106;7.164;2023-02-25T09:23:38;9.90;;;4.40;;
21192;SDS011;10754;51.106;7.164;2023-02-25T09:26:05;6.30;;;3.50;;
21192;SDS011;10754;51.106;7.164;2023-02-25T09:28:31;7.37;;;4.17;;
21192;SDS011;10754;51.106;7.164;2023-02-25T09:30:58;6.20;;;3.83;;
21192;SDS011;10754;51.106;7.164;2023-02-25T09:33:24;4.90;;;3.87;;
21192;SDS011;10754;51.106;7.164;2023-02-25T09:35:50;6.37;;;4.70;;
21192;SDS011;10754;51.106;7.164;2023-02-25T09:38:16;8.80;;;5.33;;
21192;SDS011;10754;51.106;7.164;2023-02-25T09:40:45;6.43;;;4.60;;
21192;SDS011;10754;51.106;7.164;2023-02-25T09:43:28;7.03;;;4.97;;
21192;SDS011;10754;51.106;7.164;2023-02-25T09:46:05;9.73;;;4.67;;
21192;SDS011;10754;51.106;7.164;2023-02-25T09:48:34;10.33;;;5.30;;
21192;SDS011;10754;51.106;7.164;2023-02-25T09:51:19;8.67;;;5.40;;
21192;SDS011;10754;51.106;7.164;2023-02-25T09:53:52;11.20;;;6.00;;
21192;SDS011;10754;51.106;7.164;2023-02-25T09:56:22;8.93;;;6.03;;
21192;SDS011;10754;51.106;7.164;2023-02-25T09:58:55;10.27;;;6.10;;
21192;SDS011;10754;51.106;7.164;2023-02-25T10:04:06;11.57;;;6.27;;
21192;SDS011;10754;51.106;7.164;2023-02-25T10:06:50;8.27;;;5.27;;
21192;SDS011;10754;51.106;7.164;2023-02-25T10:09:20;6.97;;;4.50;;
21192;SDS011;10754;51.106;7.164;2023-02-25T10:15:21;6.30;;;3.80;;
21192;SDS011;10754;51.106;7.164;2023-02-25T10:21:03;8.20;;;3.73;;
21192;SDS011;10754;51.106;7.164;2023-02-25T10:23:44;8.47;;;3.70;;
21192;SDS011;10754;51.106;7.164;2023-02-25T10:26:28;9.00;;;3.80;;
21192;SDS011;10754;51.106;7.164;2023-02-25T10:29:09;6.33;;;2.00;;
21192;SDS011;10754;51.106;7.164;2023-02-25T10:31:39;6.33;;;2.40;;
21192;SDS011;10754;51.106;7.164;2023-02-25T10:34:20;3.30;;;2.37;;
21192;SDS011;10754;51.106;7.164;2023-02-25T10:36:57;4.47;;;2.30;;
21192;SDS011;10754;51.106;7.164;2023-02-25T10:39:24;5.70;;;2.00;;
21192;SDS011;10754;51.106;7.164;2023-02-25T10:41:51;7.30;;;2.50;;
21192;SDS011;10754;51.106;7.164;2023-02-25T10:44:18;3.77;;;1.73;;
21192;SDS011;10754;51.106;7.164;2023-02-25T10:46:49;5.67;;;2.20;;
21192;SDS011;10754;51.106;7.164;2023-02-25T10:49:22;4.00;;;1.90;;
21192;SDS011;10754;51.106;7.164;2023-02-25T10:52:01;4.00;;;1.50;;
21192;SDS011;10754;51.106;7.164;2023-02-25T10:54:32;2.53;;;1.20;;
21192;SDS011;10754;51.106;7.164;2023-02-25T10:57:00;2.40;;;1.40;;
21192;SDS011;10754;51.106;7.164;2023-02-25T10:59:38;6.07;;;1.63;;
21192;SDS011;10754;51.106;7.164;2023-02-25T11:02:18;1.77;;;1.30;;
21192;SDS011;10754;51.106;7.164;2023-02-25T11:04:47;4.83;;;2.70;;
21192;SDS011;10754;51.106;7.164;2023-02-25T11:07:31;3.23;;;1.40;;
21192;SDS011;10754;51.106;7.164;2023-02-25T11:10:14;3.43;;;1.53;;
21192;SDS011;10754;51.106;7.164;2023-02-25T11:12:51;1.30;;;0.80;;
21192;SDS011;10754;51.106;7.164;2023-02-25T11:15:31;2.00;;;1.03;;
21192;SDS011;10754;51.106;7.164;2023-02-25T11:20:52;2.40;;;1.10;;
21192;SDS011;10754;51.106;7.164;2023-02-25T11:23:26;4.30;;;1.50;;
21192;SDS011;10754;51.106;7.164;2023-02-25T11:25:58;2.53;;;1.20;;
21192;SDS011;10754;51.106;7.164;2023-02-25T11:28:39;1.93;;;1.07;;
21192;SDS011;10754;51.106;7.164;2023-02-25T11:31:20;2.63;;;1.03;;
21192;SDS011;10754;51.106;7.164;2023-02-25T11:33:58;1.33;;;0.90;;
21192;SDS011;10754;51.106;7.164;2023-02-25T11:36:31;2.37;;;1.47;;
21192;SDS011;10754;51.106;7.164;2023-02-25T11:39:35;1.40;;;0.80;;
21192;SDS011;10754;51.106;7.164;2023-02-25T11:44:49;1.60;;;0.80;;
21192;SDS011;10754;51.106;7.164;2023-02-25T11:47:24;2.87;;;0.80;;
21192;SDS011;10754;51.106;7.164;2023-02-25T11:52:27;2.03;;;0.80;;
21192;SDS011;10754;51.106;7.164;2023-02-25T11:55:22;1.60;;;0.60;;
21192;SDS011;10754;51.106;7.164;2023-02-25T11:58:14;2.90;;;1.00;;
21192;SDS011;10754;51.106;7.164;2023-02-25T12:00:57;2.47;;;0.90;;
21192;SDS011;10754;51.106;7.164;2023-02-25T12:09:43;3.57;;;1.30;;
21192;SDS011;10754;51.106;7.164;2023-02-25T12:15:44;2.13;;;1.10;;
21192;SDS011;10754;51.106;7.164;2023-02-25T12:18:44;3.03;;;1.20;;
21192;SDS011;10754;51.106;7.164;2023-02-25T12:24:29;1.43;;;1.00;;
21192;SDS011;10754;51.106;7.164;2023-02-25T12:27:31;2.90;;;1.00;;
21192;SDS011;10754;51.106;7.164;2023-02-25T12:33:06;2.00;;;0.93;;
21192;SDS011;10754;51.106;7.164;2023-02-25T12:35:51;3.40;;;1.10;;
21192;SDS011;10754;51.106;7.164;2023-02-25T12:38:34;2.37;;;1.00;;
21192;SDS011;10754;51.106;7.164;2023-02-25T12:41:25;4.00;;;1.40;;
21192;SDS011;10754;51.106;7.164;2023-02-25T12:50:18;1.83;;;1.20;;
21192;SDS011;10754;51.106;7.164;2023-02-25T12:53:12;2.60;;;0.90;;
21192;SDS011;10754;51.106;7.164;2023-02-25T13:01:40;2.78;;;1.10;;
21192;SDS011;10754;51.106;7.164;2023-02-25T13:10:56;3.72;;;1.20;;
21192;SDS011;10754;51.106;7.164;2023-02-25T13:19:05;4.65;;;1.70;;
21192;SDS011;10754;51.106;7.164;2023-02-25T13:21:59;3.92;;;0.90;;
21192;SDS011;10754;51.106;7.164;2023-02-25T13:24:44;2.63;;;1.23;;
21192;SDS011;10754;51.106;7.164;2023-02-25T13:27:38;3.67;;;1.03;;
21192;SDS011;10754;51.106;7.164;2023-02-25T13:30:37;5.00;;;1.58;;
21192;SDS011;10754;51.106;7.164;2023-02-25T13:33:35;2.72;;;1.13;;
21192;SDS011;10754;51.106;7.164;2023-02-25T13:47:02;3.65;;;1.10;;
21192;SDS011;10754;51.106;7.164;2023-02-25T13:53:00;2.85;;;1.25;;
21192;SDS011;10754;51.106;7.164;2023-02-25T14:07:54;2.70;;;1.17;;
21192;SDS011;10754;51.106;7.164;2023-02-25T14:13:46;3.30;;;1.30;;
21192;SDS011;10754;51.106;7.164;2023-02-25T14:16:53;4.27;;;1.47;;
21192;SDS011;10754;51.106;7.164;2023-02-25T14:28:06;2.17;;;0.90;;
21192;SDS011;10754;51.106;7.164;2023-02-25T14:44:47;3.53;;;1.40;;
21192;SDS011;10754;51.106;7.164;2023-02-25T14:47:33;2.60;;;0.77;;
21192;SDS011;10754;51.106;7.164;2023-02-25T14:50:11;1.37;;;0.63;;
21192;SDS011;10754;51.106;7.164;2023-02-25T14:52:47;3.17;;;1.33;;
21192;SDS011;10754;51.106;7.164;2023-02-25T14:55:19;3.50;;;1.00;;
21192;SDS011;10754;51.106;7.164;2023-02-25T15:12:38;2.33;;;1.00;;
21192;SDS011;10754;51.106;7.164;2023-02-25T15:15:29;3.67;;;1.27;;
21192;SDS011;10754;51.106;7.164;2023-02-25T15:23:56;1.93;;;0.80;;
21192;SDS011;10754;51.106;7.164;2023-02-25T15:26:38;2.17;;;1.10;;
21192;SDS011;10754;51.106;7.164;2023-02-25T15:29:54;1.60;;;0.70;;
21192;SDS011;10754;51.106;7.164;2023-02-25T15:32:14;5.90;;;0.80;;
21192;SDS011;10754;51.106;7.164;2023-02-25T15:34:55;2.23;;;0.93;;
21192;SDS011;10754;51.106;7.164;2023-02-25T15:37:30;1.10;;;0.70;;
21192;SDS011;10754;51.106;7.164;2023-02-25T15:39:58;2.03;;;0.60;;
21192;SDS011;10754;51.106;7.164;2023-02-25T15:55:37;2.37;;;0.83;;
21192;SDS011;10754;51.106;7.164;2023-02-25T16:00:51;1.80;;;0.77;;
21192;SDS011;10754;51.106;7.164;2023-02-25T16:06:04;3.50;;;1.20;;
21192;SDS011;10754;51.106;7.164;2023-02-25T16:11:05;1.40;;;0.93;;
21192;SDS011;10754;51.106;7.164;2023-02-25T16:13:50;2.03;;;1.13;;
21192;SDS011;10754;51.106;7.164;2023-02-25T16:16:16;2.17;;;1.10;;
21192;SDS011;10754;51.106;7.164;2023-02-25T16:18:47;3.83;;;0.70;;
21192;SDS011;10754;51.106;7.164;2023-02-25T16:23:50;2.20;;;0.87;;
21192;SDS011;10754;51.106;7.164;2023-02-25T16:29:39;2.40;;;0.57;;
21192;SDS011;10754;51.106;7.164;2023-02-25T16:34:57;3.13;;;0.77;;
21192;SDS011;10754;51.106;7.164;2023-02-25T16:40:28;6.03;;;0.80;;
21192;SDS011;10754;51.106;7.164;2023-02-25T16:43:02;2.47;;;0.70;;
21192;SDS011;10754;51.106;7.164;2023-02-25T16:46:02;1.80;;;0.70;;
21192;SDS011;10754;51.106;7.164;2023-02-25T16:48:32;1.40;;;0.63;;
21192;SDS011;10754;51.106;7.164;2023-02-25T16:51:11;2.57;;;0.80;;
21192;SDS011;10754;51.106;7.164;2023-02-25T16:53:44;2.77;;;0.97;;
21192;SDS011;10754;51.106;7.164;2023-02-25T16:56:13;2.20;;;0.83;;
21192;SDS011;10754;51.106;7.164;2023-02-25T16:58:43;3.17;;;0.90;;
21192;SDS011;10754;51.106;7.164;2023-02-25T17:04:46;2.17;;;1.07;;
21192;SDS011;10754;51.106;7.164;2023-02-25T17:07:14;1.20;;;0.70;;
21192;SDS011;10754;51.106;7.164;2023-02-25T17:09:47;2.77;;;0.90;;
21192;SDS011;10754;51.106;7.164;2023-02-25T17:12:17;2.00;;;1.20;;
21192;SDS011;10754;51.106;7.164;2023-02-25T17:14:53;1.43;;;0.80;;
21192;SDS011;10754;51.106;7.164;2023-02-25T17:17:21;2.47;;;1.00;;
21192;SDS011;10754;51.106;7.164;2023-02-25T17:19:50;2.57;;;1.23;;
21192;SDS011;10754;51.106;7.164;2023-02-25T17:22:19;2.53;;;1.33;;
21192;SDS011;10754;51.106;7.164;2023-02-25T17:24:46;1.87;;;0.90;;
21192;SDS011;10754;51.106;7.164;2023-02-25T17:27:14;2.00;;;1.20;;
21192;SDS011;10754;51.106;7.164;2023-02-25T17:29:41;1.37;;;1.03;;
21192;SDS011;10754;51.106;7.164;2023-02-25T17:32:11;1.77;;;0.90;;
21192;SDS011;10754;51.106;7.164;2023-02-25T17:34:43;1.70;;;0.83;;
21192;SDS011;10754;51.106;7.164;2023-02-25T17:37:10;2.10;;;0.90;;
21192;SDS011;10754;51.106;7.164;2023-02-25T17:39:37;3.50;;;1.20;;
21192;SDS011;10754;51.106;7.164;2023-02-25T17:44:50;6.73;;;2.60;;
21192;SDS011;10754;51.106;7.164;2023-02-25T17:47:20;6.40;;;3.13;;
21192;SDS011;10754;51.106;7.164;2023-02-25T17:49:52;3.47;;;2.40;;
21192;SDS011;10754;51.106;7.164;2023-02-25T17:52:23;3.03;;;1.80;;
21192;SDS011;10754;51.106;7.164;2023-02-25T17:57:25;6.50;;;4.60;;
21192;SDS011;10754;51.106;7.164;2023-02-25T18:02:28;4.30;;;2.70;;
21192;SDS011;10754;51.106;7.164;2023-02-25T18:07:33;5.83;;;2.47;;
21192;SDS011;10754;51.106;7.164;2023-02-25T18:09:59;5.57;;;2.30;;
21192;SDS011;10754;51.106;7.164;2023-02-25T18:14:54;4.10;;;1.80;;
21192;SDS011;10754;51.106;7.164;2023-02-25T18:17:25;3.47;;;1.60;;
21192;SDS011;10754;51.106;7.164;2023-02-25T18:20:03;4.57;;;2.07;;
21192;SDS011;10754;51.106;7.164;2023-02-25T18:23:03;2.77;;;1.50;;
21192;SDS011;10754;51.106;7.164;2023-02-25T18:25:42;3.73;;;2.23;;
21192;SDS011;10754;51.106;7.164;2023-02-25T18:28:20;4.60;;;2.90;;
21192;SDS011;10754;51.106;7.164;2023-02-25T18:30:46;4.97;;;4.03;;
21192;SDS011;10754;51.106;7.164;2023-02-25T18:33:13;4.17;;;3.10;;